Time;durP1;ratioP1;P1;durP2;ratioP2;P2;SDS_P1;SDS_P2;PMS_P1;PMS_P2;Temp;Humidity;BMP_temperature;BMP_pressure;BME280_temperature;BME280_humidity;BME280_pressure;Samples;Min_cycle;Max_cycle;Signal;HPM_P1;HPM_P2
2023/09/28 00:00:35;;;;;;;2.63;2.22;;;21.20;99.90;;;;;;5036502;28;20193;-66
2023/09/28 00:02:47;;;;;;;2.85;2.17;;;21.20;99.90;;;;;;5056479;28;20205;-67
2023/09/28 00:05:14;;;;;;;2.05;1.80;;;21.20;99.90;;;;;;5036850;28;20197;-67
2023/09/28 00:07:41;;;;;;;2.47;2.00;;;21.20;99.90;;;;;;5053420;28;20181;-68
2023/09/28 00:10:11;;;;;;;2.83;2.15;;;21.20;99.90;;;;;;5035916;28;20181;-69
2023/09/28 00:12:44;;;;;;;2.40;2.20;;;21.20;99.90;;;;;;5035720;28;20181;-67
2023/09/28 00:15:10;;;;;;;2.20;1.95;;;21.20;99.90;;;;;;5035730;28;20205;-67
2023/09/28 00:17:38;;;;;;;1.80;1.65;;;21.30;99.90;;;;;;5035228;28;20192;-67
2023/09/28 00:20:18;;;;;;;2.53;2.10;;;21.30;99.90;;;;;;5039482;28;20173;-67
2023/09/28 00:22:45;;;;;;;2.42;2.17;;;21.30;99.90;;;;;;5037051;28;20193;-66
2023/09/28 00:25:11;;;;;;;2.33;1.83;;;21.30;99.90;;;;;;5042592;28;20202;-68
2023/09/28 00:27:45;;;;;;;2.40;1.80;;;21.30;99.90;;;;;;5038122;28;20181;-66
2023/09/28 00:30:18;;;;;;;2.70;1.98;;;21.30;99.90;;;;;;5070670;28;20243;-67
2023/09/28 00:32:52;;;;;;;4.80;2.15;;;21.30;99.90;;;;;;5039289;28;20204;-66
2023/09/28 00:35:19;;;;;;;2.03;1.83;;;21.30;99.90;;;;;;5059983;28;20211;-68
2023/09/28 00:37:48;;;;;;;2.08;1.88;;;21.30;99.90;;;;;;5036819;28;20193;-68
2023/09/28 00:40:28;;;;;;;2.65;1.88;;;21.30;99.90;;;;;;5035771;28;20250;-68
2023/09/28 00:42:56;;;;;;;2.10;1.90;;;21.30;99.90;;;;;;5073861;28;20224;-67
2023/09/28 00:45:23;;;;;;;3.40;2.15;;;21.30;99.90;;;;;;5037657;28;20219;-66
2023/09/28 00:47:54;;;;;;;2.95;2.13;;;21.20;99.90;;;;;;5042858;28;20219;-68
2023/09/28 00:50:24;;;;;;;2.33;1.95;;;21.20;99.90;;;;;;5038782;28;20174;-67
2023/09/28 00:52:53;;;;;;;3.35;2.00;;;21.20;99.90;;;;;;5038924;28;20178;-67
2023/09/28 00:55:22;;;;;;;2.63;2.15;;;21.20;99.90;;;;;;5045833;28;20205;-67
2023/09/28 00:57:48;;;;;;;3.22;2.22;;;21.20;99.90;;;;;;5040444;28;20178;-67
2023/09/28 01:00:28;;;;;;;2.10;1.88;;;21.20;99.90;;;;;;5041371;28;20189;-65
2023/09/28 01:03:00;;;;;;;2.05;1.80;;;21.20;99.90;;;;;;5038482;28;20201;-65
2023/09/28 01:05:34;;;;;;;1.95;1.73;;;21.20;99.90;;;;;;5042481;28;20262;-67
2023/09/28 01:08:24;;;;;;;2.30;1.90;;;21.20;99.90;;;;;;5044667;28;20185;-66
2023/09/28 01:10:52;;;;;;;2.22;2.00;;;21.20;99.90;;;;;;5045727;28;20179;-69
2023/09/28 01:13:22;;;;;;;4.28;2.25;;;21.30;99.90;;;;;;5043085;28;20920;-66
2023/09/28 01:15:51;;;;;;;2.95;2.20;;;21.20;99.90;;;;;;5040317;28;20299;-67
2023/09/28 01:18:19;;;;;;;2.30;2.10;;;21.20;99.90;;;;;;5040792;28;20216;-67
2023/09/28 01:20:47;;;;;;;2.97;2.28;;;21.20;99.90;;;;;;5039427;28;20177;-67
2023/09/28 01:23:13;;;;;;;2.88;1.95;;;21.20;99.90;;;;;;5045055;28;20173;-66
2023/09/28 01:25:40;;;;;;;1.95;1.80;;;21.10;99.90;;;;;;5039750;28;20201;-66
2023/09/28 01:28:06;;;;;;;2.00;1.80;;;21.10;99.90;;;;;;5040959;28;20185;-66
2023/09/28 01:30:33;;;;;;;2.92;1.90;;;21.10;99.90;;;;;;5037418;28;20170;-65
2023/09/28 01:33:01;;;;;;;2.78;2.00;;;21.10;99.90;;;;;;5040275;28;20170;-66
2023/09/28 01:35:30;;;;;;;2.70;1.90;;;21.00;99.90;;;;;;5040853;28;20243;-66
2023/09/28 01:38:53;;;;;;;2.45;1.95;;;21.00;99.90;;;;;;5041430;28;20204;-67
2023/09/28 01:41:21;;;;;;;2.03;1.80;;;21.00;99.90;;;;;;4989327;28;20183;-67
2023/09/28 01:43:47;;;;;;;2.20;2.00;;;20.90;99.90;;;;;;4983264;28;20179;-66
2023/09/28 01:46:15;;;;;;;3.83;1.83;;;20.90;99.90;;;;;;5011985;28;20217;-66
2023/09/28 01:48:41;;;;;;;2.20;1.83;;;20.80;99.90;;;;;;5039205;28;20272;-66
2023/09/28 01:51:06;;;;;;;1.98;1.77;;;20.80;99.90;;;;;;5041084;28;20260;-66
2023/09/28 01:53:37;;;;;;;2.60;2.08;;;20.80;99.90;;;;;;5039552;28;20195;-66
2023/09/28 01:56:04;;;;;;;2.95;2.13;;;20.80;99.90;;;;;;5043558;28;20189;-67
2023/09/28 01:58:31;;;;;;;4.15;2.00;;;20.70;99.90;;;;;;5044225;28;20223;-66
2023/09/28 02:00:59;;;;;;;3.45;2.47;;;20.70;99.90;;;;;;5041832;28;20193;-66
2023/09/28 02:03:25;;;;;;;2.55;2.20;;;20.70;99.90;;;;;;5042240;28;20174;-68
2023/09/28 02:05:52;;;;;;;3.58;2.58;;;20.70;99.90;;;;;;5039936;28;20205;-66
2023/09/28 02:08:18;;;;;;;3.25;2.53;;;20.70;99.90;;;;;;5038859;28;20193;-66
2023/09/28 02:10:46;;;;;;;2.92;2.38;;;20.70;99.90;;;;;;5038620;28;20169;-66
2023/09/28 02:13:11;;;;;;;2.22;2.03;;;20.70;99.90;;;;;;5043094;28;20177;-66
2023/09/28 02:15:43;;;;;;;2.38;2.10;;;20.70;99.90;;;;;;5039986;28;20249;-66
2023/09/28 02:18:09;;;;;;;3.00;2.00;;;20.70;99.90;;;;;;5040733;28;20193;-67
2023/09/28 02:20:35;;;;;;;2.33;2.10;;;20.70;99.90;;;;;;5039776;28;20190;-67
2023/09/28 02:23:03;;;;;;;2.88;2.00;;;20.70;99.90;;;;;;5041120;28;20212;-66
2023/09/28 02:25:30;;;;;;;2.38;2.03;;;20.70;99.90;;;;;;5037947;28;20200;-66
2023/09/28 02:27:55;;;;;;;2.45;1.90;;;20.70;99.90;;;;;;5038842;28;20196;-66
2023/09/28 02:30:25;;;;;;;2.42;1.90;;;20.70;99.90;;;;;;5041306;28;20185;-67
2023/09/28 02:32:55;;;;;;;2.42;2.08;;;20.70;99.90;;;;;;5039269;28;20193;-67
2023/09/28 02:35:24;;;;;;;3.72;2.45;;;20.70;99.90;;;;;;5042813;28;20214;-67
2023/09/28 02:37:51;;;;;;;2.63;2.00;;;20.70;99.90;;;;;;5075123;28;20295;-66
2023/09/28 02:40:19;;;;;;;2.20;1.98;;;20.70;99.90;;;;;;5040834;28;20231;-66
2023/09/28 02:42:48;;;;;;;2.45;2.17;;;20.70;99.90;;;;;;5034805;28;20188;-66
2023/09/28 02:45:13;;;;;;;2.42;2.10;;;20.70;99.90;;;;;;5069556;28;20201;-65
2023/09/28 02:47:44;;;;;;;3.20;1.90;;;20.70;99.90;;;;;;5072364;28;20220;-66
2023/09/28 02:50:11;;;;;;;2.22;2.03;;;20.70;99.90;;;;;;5055638;28;20185;-66
2023/09/28 02:52:42;;;;;;;2.95;2.30;;;20.70;99.90;;;;;;5037319;28;20250;-67
2023/09/28 02:55:10;;;;;;;2.15;1.83;;;20.70;99.90;;;;;;5036095;28;20189;-67
2023/09/28 02:57:39;;;;;;;2.55;2.00;;;20.70;99.90;;;;;;5039689;28;20181;-67
2023/09/28 03:02:53;;;;;;;2.10;1.80;;;20.70;99.90;;;;;;5054992;28;20211;-66
2023/09/28 03:05:21;;;;;;;3.55;1.80;;;20.70;99.90;;;;;;5037960;28;20284;-67
2023/09/28 03:07:52;;;;;;;2.58;1.95;;;20.70;99.90;;;;;;5039727;28;20216;-67
2023/09/28 03:10:22;;;;;;;2.30;1.90;;;20.60;99.90;;;;;;5053906;28;20280;-66
2023/09/28 03:12:51;;;;;;;2.17;1.98;;;20.60;99.90;;;;;;5035600;28;20184;-66
2023/09/28 03:15:20;;;;;;;2.17;1.80;;;20.50;99.90;;;;;;5038788;28;20205;-66
2023/09/28 03:17:51;;;;;;;2.60;1.83;;;20.50;99.90;;;;;;5037631;28;20242;-67
2023/09/28 03:20:21;;;;;;;2.63;1.70;;;20.40;99.90;;;;;;5038648;28;20269;-67
2023/09/28 03:22:49;;;;;;;2.15;1.92;;;20.30;99.90;;;;;;5041938;28;20176;-66
2023/09/28 03:25:18;;;;;;;2.67;1.90;;;20.20;99.90;;;;;;5038177;28;20205;-66
2023/09/28 03:27:47;;;;;;;2.50;1.80;;;20.20;99.90;;;;;;5038882;28;20235;-66
2023/09/28 03:30:20;;;;;;;2.20;2.00;;;20.10;99.90;;;;;;5041782;28;20209;-66
2023/09/28 03:32:49;;;;;;;2.97;2.67;;;20.00;99.90;;;;;;5038711;28;20292;-66
2023/09/28 03:35:16;;;;;;;2.55;2.03;;;20.00;99.90;;;;;;5070684;28;20411;-66
2023/09/28 03:37:43;;;;;;;2.85;2.55;;;19.90;99.90;;;;;;5038707;28;20201;-67
2023/09/28 03:40:10;;;;;;;2.80;2.50;;;19.80;99.90;;;;;;5038211;28;20200;-66
2023/09/28 03:42:41;;;;;;;2.65;2.28;;;19.80;99.90;;;;;;5037942;28;20196;-66
2023/09/28 03:45:11;;;;;;;3.35;2.20;;;19.70;99.90;;;;;;5056649;28;20201;-66
2023/09/28 03:47:38;;;;;;;2.40;2.20;;;19.70;99.90;;;;;;5042280;28;20181;-65
2023/09/28 03:50:05;;;;;;;2.38;2.15;;;19.70;99.90;;;;;;5040213;28;20182;-66
2023/09/28 03:52:31;;;;;;;3.08;2.22;;;19.70;99.90;;;;;;5040911;28;20215;-66
2023/09/28 03:54:59;;;;;;;3.85;2.40;;;19.70;99.90;;;;;;5039073;28;20177;-66
2023/09/28 03:57:27;;;;;;;2.97;2.35;;;19.60;99.90;;;;;;5037307;28;20194;-67
2023/09/28 03:59:53;;;;;;;7.05;5.68;;;19.60;99.90;;;;;;5036160;28;20208;-67
2023/09/28 04:02:22;;;;;;;5.38;4.00;;;19.60;99.90;;;;;;5036757;28;20209;-66
2023/09/28 04:04:52;;;;;;;3.95;3.35;;;19.50;99.90;;;;;;5038747;28;20290;-66
2023/09/28 04:07:20;;;;;;;3.45;2.78;;;19.50;99.90;;;;;;5043811;28;20177;-66
2023/09/28 04:09:49;;;;;;;3.47;2.55;;;19.50;99.90;;;;;;5036371;28;20177;-66
2023/09/28 04:12:16;;;;;;;2.92;2.22;;;19.40;99.90;;;;;;5040797;28;20502;-66
2023/09/28 04:14:41;;;;;;;3.15;2.40;;;19.30;99.90;;;;;;5055492;28;20176;-66
2023/09/28 04:17:07;;;;;;;2.95;2.30;;;19.30;99.90;;;;;;5041052;28;20262;-66
2023/09/28 04:19:33;;;;;;;3.33;2.20;;;19.30;99.90;;;;;;5041035;28;20170;-66
2023/09/28 04:21:59;;;;;;;3.10;2.20;;;19.20;99.90;;;;;;5041669;28;20209;-66
2023/09/28 04:24:24;;;;;;;3.20;2.60;;;19.20;99.90;;;;;;5043319;28;20205;-66
2023/09/28 04:26:51;;;;;;;2.50;2.28;;;19.10;99.90;;;;;;5043823;28;20335;-66
2023/09/28 04:29:21;;;;;;;2.92;2.10;;;19.10;99.90;;;;;;5045895;28;20184;-66
2023/09/28 04:31:49;;;;;;;2.63;2.20;;;19.10;99.90;;;;;;5046205;28;20208;-66
2023/09/28 04:34:15;;;;;;;3.47;3.17;;;19.00;99.90;;;;;;5045589;28;20272;-67
2023/09/28 04:36:41;;;;;;;3.63;2.80;;;19.00;99.90;;;;;;5043809;28;20267;-65
2023/09/28 04:39:10;;;;;;;3.38;2.40;;;19.00;99.90;;;;;;5042096;28;20205;-66
2023/09/28 04:41:40;;;;;;;2.78;2.58;;;19.00;99.90;;;;;;5040436;28;20227;-66
2023/09/28 04:44:06;;;;;;;2.72;2.40;;;18.90;99.90;;;;;;5043095;28;20296;-67
2023/09/28 04:46:32;;;;;;;3.55;2.47;;;18.90;99.90;;;;;;5041175;28;20197;-66
2023/09/28 04:49:01;;;;;;;46.08;31.02;;;18.80;99.90;;;;;;5040134;28;20194;-66
2023/09/28 04:51:31;;;;;;;18.77;15.93;;;18.80;99.90;;;;;;5040605;28;20182;-66
2023/09/28 04:53:57;;;;;;;12.18;9.88;;;18.80;99.90;;;;;;5042675;28;20177;-66
2023/09/28 04:56:22;;;;;;;8.48;7.30;;;18.80;99.90;;;;;;5041194;28;20291;-66
2023/09/28 04:58:48;;;;;;;5.95;4.97;;;18.70;99.90;;;;;;5041010;28;20266;-66
2023/09/28 05:01:14;;;;;;;5.10;4.05;;;18.70;99.90;;;;;;5041670;28;20205;-65
2023/09/28 05:03:40;;;;;;;3.90;3.13;;;18.60;99.90;;;;;;5040807;28;20267;-65
2023/09/28 05:06:06;;;;;;;4.22;3.05;;;18.60;99.90;;;;;;5041077;28;20287;-66
2023/09/28 05:08:31;;;;;;;3.92;2.90;;;18.60;99.90;;;;;;5041048;28;20247;-66
2023/09/28 05:10:59;;;;;;;3.85;2.20;;;18.50;99.90;;;;;;5043028;28;20173;-66
2023/09/28 05:13:28;;;;;;;2.22;2.03;;;18.50;99.90;;;;;;5043178;28;20212;-65
2023/09/28 05:15:54;;;;;;;2.80;2.30;;;18.50;99.90;;;;;;5042518;28;20199;-65
2023/09/28 05:18:19;;;;;;;2.15;1.92;;;18.40;99.90;;;;;;5038195;28;20190;-66
2023/09/28 05:20:45;;;;;;;2.67;2.33;;;18.40;99.90;;;;;;5062553;28;20181;-66
2023/09/28 05:23:11;;;;;;;2.65;2.20;;;18.40;99.90;;;;;;5042007;28;20184;-65
2023/09/28 05:25:38;;;;;;;3.78;2.20;;;18.30;99.90;;;;;;5041969;28;20219;-66
2023/09/28 05:28:04;;;;;;;2.72;2.15;;;18.30;99.90;;;;;;5039796;28;20219;-66
2023/09/28 05:30:33;;;;;;;2.72;2.30;;;18.30;99.90;;;;;;5039105;28;20268;-65
2023/09/28 05:32:58;;;;;;;2.63;2.13;;;18.30;99.90;;;;;;5043132;28;20182;-66
2023/09/28 05:35:24;;;;;;;2.60;2.20;;;18.20;99.90;;;;;;5039955;28;20192;-67
2023/09/28 05:37:52;;;;;;;3.13;2.55;;;18.20;99.90;;;;;;5043416;28;20251;-65
2023/09/28 05:40:21;;;;;;;3.33;2.38;;;18.20;99.90;;;;;;5043748;28;20180;-66
2023/09/28 05:42:46;;;;;;;3.13;2.50;;;18.20;99.90;;;;;;5040084;28;20266;-67
2023/09/28 05:45:14;;;;;;;2.70;2.17;;;18.20;99.90;;;;;;5041147;28;20201;-66
2023/09/28 05:47:40;;;;;;;3.10;2.47;;;18.20;99.90;;;;;;5041263;28;20267;-66
2023/09/28 05:50:07;;;;;;;2.83;2.30;;;18.20;99.90;;;;;;5042612;28;20196;-65
2023/09/28 05:52:33;;;;;;;5.00;2.20;;;18.20;99.90;;;;;;5042994;28;20177;-66
2023/09/28 05:55:01;;;;;;;3.42;2.30;;;18.10;99.90;;;;;;5043975;28;20219;-66
2023/09/28 05:57:26;;;;;;;4.82;2.30;;;18.10;99.90;;;;;;5042248;28;20189;-65
2023/09/28 05:59:54;;;;;;;2.75;2.40;;;18.10;99.90;;;;;;5039897;28;20181;-66
2023/09/28 06:02:22;;;;;;;2.70;2.25;;;18.20;99.90;;;;;;5039431;28;20181;-66
2023/09/28 06:04:48;;;;;;;14.57;10.27;;;18.10;99.90;;;;;;5041022;28;20201;-66
2023/09/28 06:07:13;;;;;;;7.47;6.57;;;18.20;99.90;;;;;;5040839;28;20193;-66
2023/09/28 06:09:42;;;;;;;6.22;4.70;;;18.20;99.90;;;;;;5039033;28;20173;-66
2023/09/28 06:12:10;;;;;;;3.88;3.47;;;18.20;99.90;;;;;;5041959;28;20197;-67
2023/09/28 06:14:37;;;;;;;7.78;3.55;;;18.30;99.90;;;;;;5038525;28;20174;-66
2023/09/28 06:17:05;;;;;;;4.82;3.00;;;18.30;99.90;;;;;;5038215;28;20254;-66
2023/09/28 06:19:31;;;;;;;3.08;2.60;;;18.40;99.90;;;;;;5039378;28;20268;-66
2023/09/28 06:21:59;;;;;;;3.50;2.33;;;18.40;99.90;;;;;;5039974;28;20231;-66
2023/09/28 06:24:28;;;;;;;3.40;2.58;;;18.40;99.90;;;;;;5040703;28;20197;-66
2023/09/28 06:26:59;;;;;;;2.28;2.00;;;18.50;99.90;;;;;;5042570;28;20189;-66
2023/09/28 06:29:32;;;;;;;2.65;2.15;;;18.50;99.90;;;;;;5038197;28;20230;-66
2023/09/28 06:32:00;;;;;;;4.15;2.60;;;18.60;99.90;;;;;;5040196;28;20213;-66
2023/09/28 06:34:26;;;;;;;2.65;2.10;;;18.70;99.90;;;;;;5042600;28;20184;-66
2023/09/28 06:36:53;;;;;;;5.93;2.72;;;18.70;99.90;;;;;;5043634;28;20201;-66
2023/09/28 06:39:18;;;;;;;3.53;2.10;;;18.80;99.90;;;;;;5042739;28;20212;-66
2023/09/28 06:41:44;;;;;;;2.65;2.20;;;18.80;99.90;;;;;;5040661;28;20193;-66
2023/09/28 06:44:09;;;;;;;3.38;2.28;;;18.90;99.90;;;;;;5039613;28;20200;-66
2023/09/28 06:46:35;;;;;;;2.78;2.30;;;18.90;99.90;;;;;;5041456;28;20275;-66
2023/09/28 06:49:01;;;;;;;4.32;2.35;;;19.00;99.90;;;;;;5037886;28;20291;-66
2023/09/28 06:51:27;;;;;;;4.32;2.35;;;19.00;99.90;;;;;;5041645;28;20205;-68
2023/09/28 06:53:53;;;;;;;3.83;2.50;;;19.10;99.90;;;;;;5042480;28;20177;-66
2023/09/28 06:56:20;;;;;;;3.47;2.42;;;19.10;99.90;;;;;;5039527;28;20220;-67
2023/09/28 06:58:50;;;;;;;3.95;2.22;;;19.20;99.90;;;;;;5040312;28;20189;-67
2023/09/28 07:01:18;;;;;;;3.38;2.05;;;19.20;99.90;;;;;;5037900;28;20182;-66
2023/09/28 07:03:44;;;;;;;2.95;2.25;;;19.20;99.90;;;;;;5043549;28;20212;-66
2023/09/28 07:06:09;;;;;;;2.75;2.47;;;19.30;99.90;;;;;;5038400;28;20237;-66
2023/09/28 07:08:35;;;;;;;2.47;2.10;;;19.30;99.90;;;;;;5037898;28;20214;-66
2023/09/28 07:11:04;;;;;;;2.80;2.33;;;19.40;99.90;;;;;;5038499;28;20316;-66
2023/09/28 07:13:31;;;;;;;3.45;2.40;;;19.40;99.90;;;;;;5038300;28;20189;-66
2023/09/28 07:15:57;;;;;;;5.35;2.20;;;19.50;99.90;;;;;;5040452;28;20204;-66
2023/09/28 07:18:25;;;;;;;3.88;2.35;;;19.50;99.90;;;;;;5038205;28;20177;-65
2023/09/28 07:20:55;;;;;;;3.08;2.70;;;19.60;99.90;;;;;;5038965;28;20188;-66
2023/09/28 07:23:21;;;;;;;3.53;2.38;;;19.60;99.90;;;;;;5039021;28;20205;-66
2023/09/28 07:25:48;;;;;;;3.35;2.42;;;19.70;99.90;;;;;;5040524;28;20296;-66
2023/09/28 07:28:15;;;;;;;2.90;2.28;;;19.70;99.90;;;;;;5038883;28;20181;-66
2023/09/28 07:30:41;;;;;;;2.80;2.22;;;19.80;99.90;;;;;;5038036;28;20197;-66
2023/09/28 07:33:13;;;;;;;2.45;2.20;;;19.90;99.90;;;;;;5039754;28;20356;-66
2023/09/28 07:35:41;;;;;;;2.63;2.40;;;19.90;99.90;;;;;;5039740;28;20193;-66
2023/09/28 07:38:09;;;;;;;2.53;2.33;;;20.00;99.90;;;;;;5039794;28;20201;-66
2023/09/28 07:40:35;;;;;;;3.05;2.00;;;20.10;99.90;;;;;;5038590;28;20184;-66
2023/09/28 07:43:00;;;;;;;3.75;2.28;;;20.10;99.90;;;;;;5040098;28;20202;-66
2023/09/28 07:45:26;;;;;;;5.18;2.50;;;20.10;99.90;;;;;;5067266;28;20213;-66
2023/09/28 07:47:51;;;;;;;3.70;2.33;;;20.20;99.90;;;;;;5037795;28;20188;-66
2023/09/28 07:50:17;;;;;;;3.67;2.40;;;20.30;99.90;;;;;;5038622;28;20197;-66
2023/09/28 07:52:43;;;;;;;5.35;4.20;;;20.30;99.90;;;;;;5038380;28;20208;-66
2023/09/28 07:55:14;;;;;;;5.60;3.50;;;20.40;99.90;;;;;;5038331;28;20291;-69
2023/09/28 07:57:43;;;;;;;4.03;2.90;;;20.50;99.90;;;;;;5039710;28;20209;-67
2023/09/28 08:00:11;;;;;;;2.85;2.30;;;20.50;99.90;;;;;;5036656;28;20195;-69
2023/09/28 08:02:38;;;;;;;4.50;2.50;;;20.60;99.90;;;;;;5036344;28;20208;-69
2023/09/28 08:05:04;;;;;;;2.92;2.60;;;20.60;99.90;;;;;;5039393;28;20209;-69
2023/09/28 08:07:33;;;;;;;5.47;2.33;;;20.70;99.90;;;;;;5040603;28;20185;-69
2023/09/28 08:10:00;;;;;;;2.35;2.10;;;20.80;99.90;;;;;;5040244;28;20240;-68
2023/09/28 08:12:30;;;;;;;2.92;2.10;;;20.80;99.90;;;;;;5034424;28;20236;-70
2023/09/28 08:14:58;;;;;;;4.03;2.65;;;20.90;99.90;;;;;;5068660;28;20200;-69
2023/09/28 08:17:24;;;;;;;2.90;2.30;;;21.00;99.90;;;;;;5038761;28;20243;-69
2023/09/28 08:19:51;;;;;;;2.20;2.00;;;21.10;99.90;;;;;;5038897;28;20251;-69
2023/09/28 08:22:17;;;;;;;3.00;2.00;;;21.20;99.90;;;;;;5037001;28;20206;-69
2023/09/28 08:24:46;;;;;;;5.25;2.28;;;21.30;99.90;;;;;;5035981;28;20205;-70
2023/09/28 08:27:16;;;;;;;4.85;1.95;;;21.40;99.90;;;;;;5038457;28;20189;-68
2023/09/28 08:29:42;;;;;;;3.35;1.98;;;21.40;99.90;;;;;;5042105;28;20181;-70
2023/09/28 08:32:10;;;;;;;4.00;2.35;;;21.50;99.90;;;;;;5071866;28;20173;-69
2023/09/28 08:34:35;;;;;;;2.63;2.00;;;21.60;99.90;;;;;;5037602;28;20249;-70
2023/09/28 08:37:03;;;;;;;2.47;1.95;;;21.60;99.90;;;;;;5040318;28;20294;-70
2023/09/28 08:39:31;;;;;;;2.83;2.10;;;21.70;99.90;;;;;;5039140;28;20228;-70
2023/09/28 08:42:04;;;;;;;2.33;1.98;;;21.80;99.90;;;;;;5038548;28;20191;-70
2023/09/28 08:44:35;;;;;;;3.65;2.10;;;21.90;99.90;;;;;;5036622;28;20185;-69
2023/09/28 08:47:04;;;;;;;2.50;2.00;;;22.00;99.90;;;;;;5037961;28;20268;-70
2023/09/28 08:49:30;;;;;;;2.35;2.03;;;22.10;99.90;;;;;;5037150;28;20182;-70
2023/09/28 08:51:57;;;;;;;2.33;1.98;;;22.20;99.90;;;;;;5052819;28;20235;-68
2023/09/28 08:54:23;;;;;;;2.60;2.00;;;22.30;99.90;;;;;;5038560;28;20182;-70
2023/09/28 08:56:54;;;;;;;3.95;2.20;;;22.40;99.90;;;;;;5039506;28;20189;-69
2023/09/28 08:59:20;;;;;;;4.65;2.10;;;22.50;99.90;;;;;;5059043;28;20220;-71
2023/09/28 09:01:49;;;;;;;3.28;2.30;;;22.50;99.90;;;;;;5057775;28;20198;-69
2023/09/28 09:04:15;;;;;;;2.25;2.03;;;22.60;99.90;;;;;;5040584;28;20181;-70
2023/09/28 09:06:43;;;;;;;4.13;2.10;;;22.70;99.90;;;;;;5035720;28;20251;-71
2023/09/28 09:09:14;;;;;;;2.47;1.90;;;22.80;99.90;;;;;;5039172;28;20264;-70
2023/09/28 09:11:53;;;;;;;3.08;2.05;;;22.90;99.90;;;;;;5041847;28;20212;-70
2023/09/28 09:14:20;;;;;;;2.95;1.95;;;23.00;99.90;;;;;;5041596;28;20205;-70
2023/09/28 09:16:46;;;;;;;3.03;2.08;;;23.10;99.90;;;;;;5041773;28;20238;-70
2023/09/28 09:19:14;;;;;;;3.58;2.00;;;23.20;99.90;;;;;;5040334;28;20201;-70
2023/09/28 09:21:42;;;;;;;3.03;1.90;;;23.40;99.90;;;;;;5039843;28;20209;-71
2023/09/28 09:24:11;;;;;;;3.40;2.05;;;23.50;99.90;;;;;;5071770;28;20219;-71
2023/09/28 09:26:42;;;;;;;3.05;1.90;;;23.60;99.90;;;;;;5039635;28;20209;-70
2023/09/28 09:29:12;;;;;;;3.63;2.20;;;23.80;99.90;;;;;;5048666;28;20181;-68
2023/09/28 09:31:45;;;;;;;5.00;2.10;;;24.10;99.90;;;;;;5040625;28;20188;-69
2023/09/28 09:34:12;;;;;;;3.53;1.95;;;24.60;99.90;;;;;;5040376;28;20192;-70
2023/09/28 09:36:38;;;;;;;3.03;1.80;;;25.20;99.90;;;;;;5040530;28;20230;-69
2023/09/28 09:39:10;;;;;;;2.65;2.00;;;25.80;99.90;;;;;;5039479;28;20308;-70
2023/09/28 09:41:46;;;;;;;2.65;1.80;;;26.40;99.90;;;;;;5039972;28;20227;-71
2023/09/28 09:44:28;;;;;;;2.53;1.92;;;27.10;99.90;;;;;;5041396;28;20181;-71
2023/09/28 09:46:55;;;;;;;3.20;1.95;;;27.60;99.90;;;;;;5039912;28;20211;-71
2023/09/28 09:49:24;;;;;;;3.22;2.00;;;27.90;99.90;;;;;;5040583;28;20197;-70
2023/09/28 09:51:50;;;;;;;4.22;2.05;;;28.20;99.90;;;;;;5040873;28;20181;-71
2023/09/28 09:54:17;;;;;;;2.92;2.08;;;28.50;99.90;;;;;;5057561;28;20284;-71
2023/09/28 09:56:47;;;;;;;2.60;1.95;;;28.70;99.90;;;;;;5041131;28;20216;-70
2023/09/28 09:59:15;;;;;;;2.33;1.98;;;28.80;99.90;;;;;;5041286;28;20181;-70
2023/09/28 10:01:47;;;;;;;2.28;1.80;;;28.90;99.90;;;;;;5040068;28;20205;-68
2023/09/28 10:04:16;;;;;;;2.25;2.00;;;29.00;99.90;;;;;;5045154;28;20178;-70
2023/09/28 10:06:48;;;;;;;2.60;2.13;;;29.00;99.90;;;;;;5041603;28;20224;-69
2023/09/28 10:09:23;;;;;;;2.75;1.95;;;28.90;99.90;;;;;;5048030;28;20165;-71
2023/09/28 10:11:50;;;;;;;2.30;1.90;;;29.00;99.90;;;;;;5048849;28;20184;-68
2023/09/28 10:14:18;;;;;;;3.92;2.00;;;29.00;99.90;;;;;;5042709;28;20204;-70
2023/09/28 10:16:44;;;;;;;3.60;2.03;;;29.00;99.90;;;;;;5043829;28;20186;-71
2023/09/28 10:19:15;;;;;;;3.10;1.98;;;28.70;99.90;;;;;;5039067;28;20176;-71
2023/09/28 10:21:41;;;;;;;2.95;1.70;;;28.30;99.90;;;;;;5041911;28;20236;-68
2023/09/28 10:24:14;;;;;;;3.45;2.00;;;27.90;99.90;;;;;;5039194;28;20205;-71
2023/09/28 10:26:51;;;;;;;4.05;1.85;;;27.60;99.90;;;;;;5039659;28;20201;-71
2023/09/28 10:29:34;;;;;;;3.15;2.00;;;27.40;99.90;;;;;;5037932;28;20177;-71
2023/09/28 10:32:02;;;;;;;2.72;2.03;;;27.20;99.90;;;;;;5041644;28;20173;-70
2023/09/28 10:34:29;;;;;;;5.13;2.20;;;27.10;99.90;;;;;;5041382;28;20208;-69
2023/09/28 10:37:07;;;;;;;3.03;2.10;;;27.00;99.90;;;;;;5039877;28;20200;-71
2023/09/28 10:39:36;;;;;;;2.35;2.13;;;27.00;99.90;;;;;;5046627;28;20208;-71
2023/09/28 10:42:13;;;;;;;3.20;2.00;;;27.10;99.90;;;;;;5039589;28;20221;-70
2023/09/28 10:44:50;;;;;;;3.75;2.38;;;27.40;99.90;;;;;;5037229;28;20185;-69
2023/09/28 10:47:16;;;;;;;4.68;2.40;;;27.70;99.90;;;;;;5039098;28;20187;-70
2023/09/28 10:49:43;;;;;;;2.95;2.00;;;27.80;99.90;;;;;;5040606;28;20192;-71
2023/09/28 10:52:10;;;;;;;2.97;2.33;;;27.80;99.90;;;;;;5041243;28;20335;-69
2023/09/28 10:54:38;;;;;;;3.15;2.08;;;27.60;99.90;;;;;;5039550;28;20209;-71
2023/09/28 10:57:09;;;;;;;3.30;2.30;;;27.50;99.90;;;;;;5039567;28;20185;-70
2023/09/28 10:59:41;;;;;;;3.20;2.25;;;27.40;99.90;;;;;;5056570;28;20204;-69
2023/09/28 11:02:11;;;;;;;3.40;2.17;;;27.30;99.90;;;;;;5041050;28;20192;-71
2023/09/28 11:04:41;;;;;;;3.92;2.20;;;27.20;99.90;;;;;;5039055;28;20177;-71
2023/09/28 11:07:07;;;;;;;2.97;2.17;;;27.00;99.90;;;;;;5041664;28;20185;-71
2023/09/28 11:09:37;;;;;;;3.70;2.28;;;26.80;99.90;;;;;;5038145;28;20197;-71
2023/09/28 11:12:08;;;;;;;3.78;2.50;;;26.70;99.90;;;;;;5039954;28;20177;-68
2023/09/28 11:14:36;;;;;;;3.20;2.20;;;26.60;99.90;;;;;;5039062;28;20181;-71
2023/09/28 11:17:06;;;;;;;5.47;2.30;;;26.50;99.90;;;;;;5038931;28;20200;-71
2023/09/28 11:19:34;;;;;;;4.18;2.15;;;26.40;99.90;;;;;;5040370;28;20192;-71
2023/09/28 11:22:00;;;;;;;5.00;2.28;;;26.50;99.90;;;;;;5039009;28;20176;-71
2023/09/28 11:24:28;;;;;;;2.47;2.10;;;26.70;99.90;;;;;;5038771;28;20177;-71
2023/09/28 11:26:57;;;;;;;5.80;2.50;;;26.80;99.90;;;;;;5038833;28;20254;-70
2023/09/28 11:29:27;;;;;;;2.60;2.30;;;27.00;99.90;;;;;;5040435;28;20201;-68
2023/09/28 11:31:55;;;;;;;4.55;2.35;;;27.20;99.90;;;;;;5038772;28;20435;-71
2023/09/28 11:34:34;;;;;;;6.03;2.05;;;27.50;99.90;;;;;;5039190;28;20186;-72
2023/09/28 11:37:00;;;;;;;4.43;2.22;;;27.70;99.90;;;;;;5040044;28;20193;-70
2023/09/28 11:39:26;;;;;;;4.10;2.35;;;28.00;99.90;;;;;;5037949;28;20208;-70
2023/09/28 11:41:59;;;;;;;2.67;2.10;;;28.20;99.90;;;;;;5040744;28;20189;-70
2023/09/28 11:44:26;;;;;;;3.50;2.20;;;28.40;99.90;;;;;;5038071;28;20201;-72
2023/09/28 11:46:53;;;;;;;4.10;2.55;;;28.70;99.90;;;;;;5039671;28;20196;-72
2023/09/28 11:49:27;;;;;;;4.22;2.50;;;28.90;99.90;;;;;;5038567;28;20180;-72
2023/09/28 11:51:53;;;;;;;4.18;3.10;;;29.10;99.90;;;;;;5069503;28;20195;-73
2023/09/28 11:54:20;;;;;;;3.42;2.67;;;29.30;99.90;;;;;;5037552;28;20269;-71
2023/09/28 11:56:52;;;;;;;3.75;2.58;;;29.40;99.90;;;;;;5068769;28;20201;-72
2023/09/28 11:59:18;;;;;;;3.45;2.30;;;29.50;99.90;;;;;;5039347;28;20181;-72
2023/09/28 12:01:44;;;;;;;3.95;2.20;;;29.70;99.90;;;;;;5038398;28;20184;-73
2023/09/28 12:04:10;;;;;;;2.63;2.00;;;29.70;99.90;;;;;;5037479;28;20420;-72
2023/09/28 12:06:37;;;;;;;2.38;2.03;;;29.70;99.90;;;;;;5037736;28;20207;-73
2023/09/28 12:09:05;;;;;;;5.78;2.30;;;29.70;99.90;;;;;;5037140;28;20207;-73
2023/09/28 12:11:32;;;;;;;3.80;2.28;;;29.70;99.90;;;;;;5038531;28;20184;-73
2023/09/28 12:13:59;;;;;;;4.80;2.40;;;29.70;99.90;;;;;;5038455;28;20190;-71
2023/09/28 12:16:26;;;;;;;3.55;2.50;;;29.60;99.90;;;;;;5040066;28;20187;-72
2023/09/28 12:18:51;;;;;;;3.47;2.30;;;29.50;99.90;;;;;;5038809;28;20198;-71
2023/09/28 12:21:19;;;;;;;4.18;2.65;;;29.50;99.90;;;;;;5039811;28;20291;-73
2023/09/28 12:23:47;;;;;;;3.53;2.53;;;29.40;99.90;;;;;;5038691;28;20192;-73
2023/09/28 12:26:13;;;;;;;5.07;2.53;;;29.30;99.90;;;;;;5040175;28;20261;-73
2023/09/28 12:28:41;;;;;;;3.05;2.55;;;29.30;99.90;;;;;;5037930;28;20290;-71
2023/09/28 12:31:08;;;;;;;4.82;3.03;;;29.20;99.90;;;;;;5041757;28;20177;-72
2023/09/28 12:33:39;;;;;;;4.07;2.67;;;29.20;99.90;;;;;;5037775;28;20270;-71
2023/09/28 12:36:09;;;;;;;2.65;2.33;;;29.20;99.90;;;;;;5037715;28;20268;-73
2023/09/28 12:38:35;;;;;;;5.07;2.40;;;29.10;99.90;;;;;;5038112;28;20221;-72
2023/09/28 12:41:05;;;;;;;4.75;2.53;;;29.00;99.90;;;;;;5056346;28;20281;-73
2023/09/28 12:43:31;;;;;;;2.55;2.03;;;28.90;99.90;;;;;;5037698;28;20184;-72
2023/09/28 12:45:57;;;;;;;3.65;2.38;;;28.80;99.90;;;;;;5043776;28;20201;-73
2023/09/28 12:48:25;;;;;;;3.10;2.20;;;28.80;99.90;;;;;;5042751;28;20181;-72
2023/09/28 12:50:51;;;;;;;3.58;2.30;;;28.70;99.90;;;;;;5044542;28;20268;-73
2023/09/28 12:53:19;;;;;;;5.18;2.63;;;28.70;99.90;;;;;;5040066;28;20289;-73